Losinoborskoe, Russia
Current Conditions -  °F | °C
As of 12:30 AM on Tuesday 21 Oct 2014 (Local Time) from UNKL Reporting Station
Broken Clouds Broken Clouds  
Wind Chill: 27°   Ceiling: 8300
Heat Index: 27°   Visibility: 6mi
Dew Point: 21°   Wind: 2mph
Humidity: 80%   Direction: NA
Pressure: 29.71"   Gusts: NA
Location:  58.43°N, 89.37°E
Report Text: UNKL 201730Z VRB01MPS 9999 SCT040CB BKN083 M03/M06 Q1006 NOSIGRMK QFE729 29////65
Loading
Personal Weather Stations






























Interactive Weather Map
Tropical Storm Tracking
New forecast layout! Learn more

10-Day Weather Forecast

Advertisements
Track Severe Weather on mobile